ポートオブスペイン の空港の天気 - METARとTAF

ピアルコ国際空港(ポートオブスペイン) ( TTPP / POS ) - トリニダード・トバゴ ポートオブスペイン (トリニダード島)
飛行場実況気象(Metar)
観測時間01/19 07:00 AST (01/19 11:00 UTC)
風向・風速静穏 0m/s
視程10km以上
天気現象
少しの雲 雲底高度 490m
気温21℃
湿度94%
気圧1015hPa
METARTTPP 191100Z 00000KT 9999 FEW016 21/20 Q1015 NOSIG
過去の天気等 Google飛行場航空写真 Wunderground天気予報

過去48時間のMETAR

飛行場予報(TAF)
発表時間: 1/19 00:00 AST (1/19 04:00 UTC)
予報対象時間: 19日2時 AST ~ 20日2時 AST
風向・風速東 3m/s
視程10km以上
少しの雲 雲底高度 490m
19日7時 AST ~ 19日9時 AST に徐々に
風向・風速東 8m/s
全天の4割程度の雲 雲底高度 610m
19日19時 AST ~ 19日21時 AST に徐々に
風向・風速東 5m/s
全天の4割程度の雲 雲底高度 550m
TAF TTPP 190400Z 1906/2006 10005KT 9999 FEW016
BECMG 1911/1913 10015KT SCT020
BECMG 1923/2001 09010KT SCT018